createdAt,value
2019-02-12T00:01:24.673Z,3.30
2019-02-12T00:03:57.123Z,3.27
2019-02-12T00:06:28.528Z,3.23
2019-02-12T00:08:59.819Z,3.15
2019-02-12T00:11:31.207Z,3.11
2019-02-12T00:14:02.589Z,3.08
2019-02-12T00:16:33.968Z,3.07
2019-02-12T00:19:05.370Z,3.04
2019-02-12T00:21:36.827Z,3.04
2019-02-12T00:24:08.328Z,3.00
2019-02-12T00:26:39.674Z,2.98
2019-02-12T00:29:12.121Z,2.96
2019-02-12T00:31:43.517Z,2.92
2019-02-12T00:34:14.840Z,2.96
2019-02-12T00:36:46.145Z,2.90
2019-02-12T00:39:17.449Z,2.97
2019-02-12T00:41:48.757Z,2.95
2019-02-12T00:44:20.101Z,2.80
2019-02-12T00:46:51.391Z,2.72
2019-02-12T00:49:22.802Z,2.67
2019-02-12T00:51:54.118Z,2.59
2019-02-12T00:54:25.462Z,2.54
2019-02-12T00:56:56.913Z,2.51
2019-02-12T00:59:28.177Z,2.52
2019-02-12T01:01:59.500Z,2.58
2019-02-12T01:04:30.820Z,2.57
2019-02-12T01:07:04.049Z,2.61
2019-02-12T01:09:35.491Z,2.62
2019-02-12T01:12:06.864Z,2.63
2019-02-12T01:14:38.128Z,2.60
2019-02-12T01:17:09.582Z,2.55
2019-02-12T01:19:40.848Z,2.53
2019-02-12T01:22:12.290Z,2.54
2019-02-12T01:24:43.622Z,2.50
2019-02-12T01:27:15.060Z,2.48
2019-02-12T01:29:46.321Z,2.49
2019-02-12T01:32:17.632Z,2.50
2019-02-12T01:34:49.195Z,2.53
2019-02-12T01:37:20.509Z,2.56
2019-02-12T01:39:51.790Z,2.59
2019-02-12T01:42:23.208Z,2.56
2019-02-12T01:44:54.707Z,2.56
2019-02-12T01:47:26.109Z,2.54
2019-02-12T01:49:57.362Z,2.51
2019-02-12T01:52:28.686Z,2.49
2019-02-12T01:54:59.941Z,2.47
2019-02-12T01:57:31.283Z,2.45
2019-02-12T02:00:02.607Z,2.42
2019-02-12T02:02:35.936Z,2.40
2019-02-12T02:05:10.701Z,2.35
2019-02-12T02:07:44.636Z,2.34
2019-02-12T02:10:19.255Z,2.32
2019-02-12T02:12:50.929Z,2.30
2019-02-12T02:15:22.331Z,2.29
2019-02-12T02:17:53.782Z,2.27
2019-02-12T02:20:25.114Z,2.28
2019-02-12T02:22:56.658Z,2.27
2019-02-12T02:25:27.998Z,2.29
2019-02-12T02:27:59.477Z,2.28
2019-02-12T02:30:30.816Z,2.29
2019-02-12T02:33:02.174Z,2.32
2019-02-12T02:35:33.664Z,2.35
2019-02-12T02:38:05.037Z,2.37
2019-02-12T02:40:36.382Z,2.40
2019-02-12T02:43:07.752Z,2.41
2019-02-12T02:45:39.076Z,2.41
2019-02-12T02:48:10.380Z,2.41
2019-02-12T02:50:41.747Z,2.42
2019-02-12T02:53:13.081Z,2.47
2019-02-12T02:55:44.351Z,2.48
2019-02-12T02:58:15.643Z,2.47
2019-02-12T03:00:46.988Z,2.49
2019-02-12T03:03:18.416Z,2.50
2019-02-12T03:05:49.804Z,2.50
2019-02-12T03:08:21.937Z,2.52
2019-02-12T03:10:53.390Z,2.58
2019-02-12T03:13:24.724Z,2.64
2019-02-12T03:15:57.226Z,2.70
2019-02-12T03:18:28.492Z,2.78
2019-02-12T03:20:59.806Z,2.83
2019-02-12T03:23:31.097Z,2.88
2019-02-12T03:26:02.502Z,2.92
2019-02-12T03:28:34.051Z,3.00
2019-02-12T03:31:05.727Z,3.01
2019-02-12T03:33:38.234Z,3.02
2019-02-12T03:36:09.586Z,3.03
2019-02-12T03:38:40.939Z,3.03
2019-02-12T03:41:12.345Z,3.09
2019-02-12T03:43:43.702Z,3.11
2019-02-12T03:46:15.076Z,3.10
2019-02-12T03:48:50.146Z,3.14
2019-02-12T03:51:21.540Z,3.14
2019-02-12T03:53:52.981Z,3.11
2019-02-12T03:56:24.370Z,3.10
2019-02-12T03:58:55.912Z,3.09
2019-02-12T04:01:27.461Z,3.08
2019-02-12T04:03:58.817Z,3.07
2019-02-12T04:06:30.251Z,3.06
2019-02-12T04:09:02.367Z,3.03
2019-02-12T04:11:34.468Z,3.00
2019-02-12T04:14:05.937Z,2.95
2019-02-12T04:16:37.407Z,2.91
2019-02-12T04:19:08.784Z,2.88
2019-02-12T04:21:40.146Z,2.84
2019-02-12T04:24:11.850Z,2.80
2019-02-12T04:26:43.246Z,2.74
2019-02-12T04:29:14.661Z,2.70
2019-02-12T04:31:46.289Z,2.66
2019-02-12T04:34:17.629Z,2.63
2019-02-12T04:36:48.917Z,2.60
2019-02-12T04:39:20.374Z,2.56
2019-02-12T04:41:51.881Z,2.52
2019-02-12T04:44:23.193Z,2.48
2019-02-12T04:46:54.469Z,2.47
2019-02-12T04:49:26.029Z,2.45
2019-02-12T04:51:58.458Z,2.41
2019-02-12T04:54:29.788Z,2.40
2019-02-12T04:57:01.215Z,2.38
2019-02-12T04:59:32.969Z,2.37
2019-02-12T05:02:04.422Z,2.34
2019-02-12T05:04:35.897Z,2.33
2019-02-12T05:07:07.172Z,2.34
2019-02-12T05:09:43.453Z,2.34
2019-02-12T05:12:17.583Z,2.36
2019-02-12T05:14:49.001Z,2.37
2019-02-12T05:17:20.517Z,2.37
2019-02-12T05:19:52.147Z,2.37
2019-02-12T05:22:23.540Z,2.37
2019-02-12T05:24:54.870Z,2.39
2019-02-12T05:27:26.117Z,2.42
2019-02-12T05:29:59.100Z,2.42
2019-02-12T05:32:30.512Z,2.45
2019-02-12T05:35:03.413Z,2.45
2019-02-12T05:37:34.740Z,2.45
2019-02-12T05:40:09.591Z,2.45
2019-02-12T05:42:40.917Z,2.49
2019-02-12T05:45:17.313Z,2.48
2019-02-12T05:47:48.582Z,2.45
2019-02-12T05:50:20.359Z,2.42
2019-02-12T05:52:54.343Z,2.40
2019-02-12T05:55:26.699Z,2.36
2019-02-12T05:57:58.107Z,2.36
2019-02-12T06:00:31.277Z,2.36
2019-02-12T06:03:02.608Z,2.34
2019-02-12T06:05:34.023Z,2.35
2019-02-12T06:08:05.515Z,2.32
2019-02-12T06:10:39.739Z,2.31
2019-02-12T06:13:10.996Z,2.27
2019-02-12T06:15:42.390Z,2.24
2019-02-12T06:18:13.709Z,2.21
2019-02-12T06:20:45.874Z,2.20
2019-02-12T06:23:17.144Z,2.18
2019-02-12T06:25:49.534Z,2.17
2019-02-12T06:28:20.803Z,2.17
2019-02-12T06:30:52.235Z,2.15
2019-02-12T06:33:23.497Z,2.14
2019-02-12T06:35:54.825Z,2.17
2019-02-12T06:38:26.091Z,2.18
2019-02-12T06:40:57.477Z,2.21
2019-02-12T06:43:28.738Z,2.22
2019-02-12T06:46:00.069Z,2.19
2019-02-12T06:48:31.478Z,2.21
2019-02-12T06:51:02.902Z,2.19
2019-02-12T06:53:34.202Z,2.18
2019-02-12T06:56:05.638Z,2.19
2019-02-12T06:58:36.881Z,2.19
2019-02-12T07:01:08.378Z,2.21
2019-02-12T07:03:55.929Z,2.24
2019-02-12T07:06:37.520Z,2.32
2019-02-12T07:09:28.676Z,2.35
2019-02-12T07:12:13.824Z,2.37
2019-02-12T07:14:58.474Z,2.42
2019-02-12T07:18:09.452Z,2.46
2019-02-12T07:20:57.219Z,2.48
2019-02-12T07:24:06.751Z,2.54
2019-02-12T07:27:06.466Z,2.57
2019-02-12T07:29:54.337Z,2.58
2019-02-12T07:32:35.929Z,2.62
2019-02-12T07:35:48.159Z,2.68
2019-02-12T07:38:30.149Z,2.74
2019-02-12T07:41:28.447Z,2.77
2019-02-12T07:44:34.805Z,2.79
2019-02-12T07:47:25.958Z,2.80
2019-02-12T07:50:41.317Z,2.84
2019-02-12T07:53:39.507Z,2.87
2019-02-12T07:56:30.126Z,2.91
2019-02-12T07:59:15.066Z,2.96
2019-02-12T08:02:02.947Z,2.99
2019-02-12T08:05:10.584Z,3.03
2019-02-12T08:08:16.769Z,3.08
2019-02-12T08:11:07.497Z,3.14
2019-02-12T08:14:00.905Z,3.21
2019-02-12T08:16:46.893Z,3.28
2019-02-12T08:19:35.970Z,3.41
2019-02-12T08:22:33.193Z,3.54
2019-02-12T08:25:26.622Z,3.62
2019-02-12T08:28:29.476Z,3.68
2019-02-12T08:31:17.304Z,3.77
2019-02-12T08:34:17.433Z,3.85
2019-02-12T08:36:53.480Z,3.94
2019-02-12T08:40:13.689Z,4.04
2019-02-12T08:42:55.307Z,4.11
2019-02-12T08:45:49.564Z,4.21
2019-02-12T08:48:48.303Z,4.30
2019-02-12T08:52:00.299Z,4.37
2019-02-12T08:54:41.785Z,4.41
2019-02-12T08:57:34.460Z,4.47
2019-02-12T09:00:31.643Z,4.50
2019-02-12T09:03:34.215Z,4.53
2019-02-12T09:06:48.312Z,4.56
2019-02-12T09:10:04.150Z,4.58
2019-02-12T09:13:05.794Z,4.62
2019-02-12T09:16:08.834Z,4.62
2019-02-12T09:19:21.704Z,4.66
2019-02-12T09:22:21.643Z,4.70
2019-02-12T09:25:29.647Z,4.73
2019-02-12T09:28:08.371Z,4.74
2019-02-12T09:31:08.610Z,4.75
2019-02-12T09:34:05.046Z,4.74
2019-02-12T09:37:18.883Z,4.76
2019-02-12T09:40:18.897Z,4.78
2019-02-12T09:43:26.461Z,4.83
2019-02-12T09:46:17.317Z,4.90
2019-02-12T09:49:02.293Z,4.93
2019-02-12T09:51:40.964Z,4.95
2019-02-12T09:54:25.921Z,4.96
2019-02-12T09:57:04.601Z,4.91
2019-02-12T09:59:48.911Z,4.88
2019-02-12T10:02:59.549Z,4.86
2019-02-12T10:05:59.494Z,4.95
2019-02-12T10:09:17.862Z,5.08
2019-02-12T10:12:05.804Z,5.19
2019-02-12T10:14:50.499Z,5.32
2019-02-12T10:18:10.467Z,5.42
2019-02-12T10:21:03.680Z,5.50
2019-02-12T10:23:54.276Z,5.58
2019-02-12T10:26:36.203Z,5.75
2019-02-12T10:29:23.602Z,5.72
2019-02-12T10:31:53.283Z,5.71
2019-02-12T10:34:24.637Z,5.76
2019-02-12T10:36:55.852Z,5.79
2019-02-12T10:39:27.088Z,5.84
2019-02-12T10:41:58.434Z,5.85
2019-02-12T10:44:29.717Z,5.83
2019-02-12T10:47:00.996Z,5.85
2019-02-12T10:49:32.287Z,5.96
2019-02-12T10:52:03.729Z,6.02
2019-02-12T10:54:36.026Z,6.09
2019-02-12T10:57:07.373Z,6.12
2019-02-12T10:59:38.824Z,6.12
2019-02-12T11:02:10.178Z,6.14
2019-02-12T11:04:41.602Z,6.20
2019-02-12T11:07:12.882Z,6.17
2019-02-12T11:09:44.192Z,6.27
2019-02-12T11:12:15.472Z,6.34
2019-02-12T11:14:46.703Z,6.46
2019-02-12T11:17:17.974Z,6.66
2019-02-12T11:19:49.211Z,6.73
2019-02-12T11:22:20.519Z,6.85
2019-02-12T11:24:51.808Z,6.90
2019-02-12T11:27:24.696Z,7.00
2019-02-12T11:29:55.936Z,6.98
2019-02-12T11:32:27.222Z,6.92
2019-02-12T11:34:58.468Z,6.97
2019-02-12T11:37:29.763Z,7.13
2019-02-12T11:40:00.989Z,7.23
2019-02-12T11:42:32.434Z,7.25
2019-02-12T11:45:03.899Z,7.26
2019-02-12T11:47:35.196Z,7.31
2019-02-12T11:50:10.029Z,7.40
2019-02-12T11:52:41.407Z,7.39
2019-02-12T11:55:15.094Z,7.50
2019-02-12T11:57:46.374Z,7.57
2019-02-12T12:00:22.376Z,7.55
2019-02-12T12:02:53.670Z,7.48
2019-02-12T12:05:24.895Z,7.44
2019-02-12T12:07:56.269Z,7.47
2019-02-12T12:10:27.505Z,7.44
2019-02-12T12:12:59.881Z,7.50
2019-02-12T12:15:31.114Z,7.46
2019-02-12T12:18:02.408Z,7.50
2019-02-12T12:20:33.695Z,7.54
2019-02-12T12:23:05.119Z,7.70
2019-02-12T12:25:36.518Z,7.80
2019-02-12T12:28:08.087Z,7.93
2019-02-12T12:30:39.545Z,8.06
2019-02-12T12:33:11.218Z,8.01
2019-02-12T12:35:42.582Z,8.09
2019-02-12T12:38:13.907Z,8.14
2019-02-12T12:40:45.240Z,8.17
2019-02-12T12:43:16.546Z,8.17
2019-02-12T12:45:47.944Z,8.24
2019-02-12T12:48:20.501Z,8.28
2019-02-12T12:50:51.817Z,8.29
2019-02-12T12:53:23.339Z,8.32
2019-02-12T12:55:54.693Z,8.39
2019-02-12T12:58:26.075Z,8.39
2019-02-12T13:00:57.411Z,8.41
2019-02-12T13:03:28.798Z,8.48
2019-02-12T13:06:00.175Z,8.55
2019-02-12T13:08:31.563Z,8.53
2019-02-12T13:11:03.335Z,8.45
2019-02-12T13:13:34.999Z,8.37
2019-02-12T13:16:06.499Z,8.20
2019-02-12T13:18:37.908Z,8.10
2019-02-12T13:21:09.202Z,8.13
2019-02-12T13:23:40.593Z,8.23
2019-02-12T13:26:11.987Z,8.31
2019-02-12T13:28:43.364Z,8.30
2019-02-12T13:31:14.613Z,8.31
2019-02-12T13:33:45.999Z,8.29
2019-02-12T13:36:17.275Z,8.24
2019-02-12T13:38:54.550Z,8.08
2019-02-12T13:41:25.884Z,8.02
2019-02-12T13:43:57.304Z,7.87
2019-02-12T13:46:28.633Z,7.71
2019-02-12T13:49:00.116Z,7.67
2019-02-12T13:51:31.385Z,7.63
2019-02-12T13:54:04.690Z,7.52
2019-02-12T13:56:37.386Z,7.64
2019-02-12T13:59:08.829Z,7.88
2019-02-12T14:01:40.154Z,8.19
2019-02-12T14:04:11.614Z,8.51
2019-02-12T14:06:43.179Z,8.61
2019-02-12T14:09:14.490Z,8.53
2019-02-12T14:11:47.546Z,8.51
2019-02-12T14:14:20.040Z,8.65
2019-02-12T14:16:51.438Z,8.78
2019-02-12T14:19:22.941Z,8.76
2019-02-12T14:21:54.980Z,8.81
2019-02-12T14:24:27.506Z,8.91
2019-02-12T14:26:58.973Z,9.00
2019-02-12T14:29:30.784Z,9.21
2019-02-12T14:32:02.050Z,9.47
2019-02-12T14:34:34.778Z,9.49
2019-02-12T14:37:06.223Z,9.37
2019-02-12T14:39:37.553Z,9.22
2019-02-12T14:42:08.817Z,8.96
2019-02-12T14:44:42.226Z,8.72
2019-02-12T14:47:13.478Z,8.75
2019-02-12T14:49:45.138Z,8.81
2019-02-12T14:52:16.460Z,8.75
2019-02-12T14:54:47.841Z,8.73
2019-02-12T14:57:19.825Z,8.60
2019-02-12T14:59:52.902Z,8.48
2019-02-12T15:02:24.323Z,8.31
2019-02-12T15:05:01.364Z,8.34
2019-02-12T15:07:33.178Z,8.39
2019-02-12T15:10:11.970Z,8.41
2019-02-12T15:12:43.492Z,8.45
2019-02-12T15:15:15.141Z,8.45
2019-02-12T15:17:48.547Z,8.45
2019-02-12T15:20:24.068Z,8.59
2019-02-12T15:22:56.589Z,8.75
2019-02-12T15:25:31.064Z,8.74
2019-02-12T15:28:02.707Z,8.65
2019-02-12T15:30:34.189Z,8.47
2019-02-12T15:33:05.553Z,8.40
2019-02-12T15:35:37.129Z,8.14
2019-02-12T15:38:08.411Z,7.91
2019-02-12T15:40:39.863Z,7.76
2019-02-12T15:43:12.380Z,7.69
2019-02-12T15:45:44.486Z,7.59
2019-02-12T15:48:22.049Z,7.52
2019-02-12T15:50:54.601Z,7.52
2019-02-12T15:53:26.085Z,7.47
2019-02-12T15:55:57.615Z,7.41
2019-02-12T15:58:30.300Z,7.44
2019-02-12T16:01:02.338Z,7.47
2019-02-12T16:03:37.720Z,7.34
2019-02-12T16:06:08.086Z,7.29
2019-02-12T16:08:39.554Z,7.26
2019-02-12T16:11:13.802Z,7.22
2019-02-12T16:13:45.180Z,7.15
2019-02-12T16:16:16.574Z,6.99
2019-02-12T16:18:47.912Z,6.93
2019-02-12T16:21:19.440Z,6.90
2019-02-12T16:23:53.369Z,6.86
2019-02-12T16:26:32.369Z,6.82
2019-02-12T16:29:05.326Z,6.80
2019-02-12T16:31:40.222Z,6.80
2019-02-12T16:34:12.155Z,6.76
2019-02-12T16:36:45.617Z,6.69
2019-02-12T16:39:20.209Z,6.70
2019-02-12T16:41:52.048Z,6.66
2019-02-12T16:44:23.909Z,6.65
2019-02-12T16:47:07.920Z,6.60
2019-02-12T16:49:41.368Z,6.57
2019-02-12T16:52:20.934Z,6.44
2019-02-12T16:54:51.494Z,6.40
2019-02-12T16:57:37.515Z,6.36
2019-02-12T17:00:17.982Z,6.31
2019-02-12T17:02:49.782Z,6.26
2019-02-12T17:05:24.893Z,6.21
2019-02-12T17:07:56.669Z,6.16
2019-02-12T17:10:28.388Z,6.06
2019-02-12T17:13:03.054Z,6.00
2019-02-12T17:15:34.735Z,5.97
2019-02-12T17:18:06.505Z,5.98
2019-02-12T17:20:38.186Z,5.93
2019-02-12T17:23:10.896Z,5.74
2019-02-12T17:25:43.789Z,5.71
2019-02-12T17:28:15.273Z,5.72
2019-02-12T17:30:47.061Z,5.73
2019-02-12T17:33:20.324Z,5.68
2019-02-12T17:35:51.832Z,5.66
2019-02-12T17:38:23.433Z,5.65
2019-02-12T17:40:54.844Z,5.58
2019-02-12T17:43:26.211Z,5.54
2019-02-12T17:45:57.636Z,5.50
2019-02-12T17:48:28.951Z,5.44
2019-02-12T17:51:00.306Z,5.40
2019-02-12T17:53:31.710Z,5.40
2019-02-12T17:56:03.267Z,5.37
2019-02-12T17:58:35.079Z,5.37
2019-02-12T18:01:08.549Z,5.35
2019-02-12T18:03:44.468Z,5.30
2019-02-12T18:06:15.941Z,5.26
2019-02-12T18:08:48.939Z,5.26
2019-02-12T18:11:20.373Z,5.23
2019-02-12T18:13:52.015Z,5.19
2019-02-12T18:16:23.601Z,5.18
2019-02-12T18:18:55.098Z,5.12
2019-02-12T18:21:36.310Z,5.13
2019-02-12T18:24:07.933Z,5.08
2019-02-12T18:26:40.534Z,5.01
2019-02-12T18:29:12.116Z,4.95
2019-02-12T18:31:43.510Z,4.90
2019-02-12T18:34:14.996Z,4.91
2019-02-12T18:36:46.403Z,4.87
2019-02-12T18:39:19.474Z,4.86
2019-02-12T18:41:51.097Z,4.81
2019-02-12T18:44:22.560Z,4.75
2019-02-12T18:46:53.980Z,4.68
2019-02-12T18:49:31.712Z,4.62
2019-02-12T18:52:03.130Z,4.58
2019-02-12T18:54:34.737Z,4.55
2019-02-12T18:57:07.401Z,4.55
2019-02-12T18:59:38.818Z,4.52
2019-02-12T19:02:10.729Z,4.48
2019-02-12T19:04:42.119Z,4.47
2019-02-12T19:07:13.423Z,4.44
2019-02-12T19:09:46.742Z,4.43
2019-02-12T19:12:18.157Z,4.42
2019-02-12T19:14:49.743Z,4.35
2019-02-12T19:17:21.400Z,4.25
2019-02-12T19:19:52.828Z,4.16
2019-02-12T19:22:24.203Z,4.09
2019-02-12T19:24:57.378Z,4.02
2019-02-12T19:27:28.762Z,3.92
2019-02-12T19:30:00.162Z,3.81
2019-02-12T19:32:31.984Z,3.78
2019-02-12T19:35:03.900Z,3.73
2019-02-12T19:37:35.444Z,3.71
2019-02-12T19:40:10.886Z,3.70
2019-02-12T19:42:42.388Z,3.70
2019-02-12T19:45:18.399Z,3.69
2019-02-12T19:47:49.723Z,3.72
2019-02-12T19:50:21.398Z,3.74
2019-02-12T19:52:53.119Z,3.74
2019-02-12T19:55:24.594Z,3.71
2019-02-12T19:57:55.965Z,3.69
2019-02-12T20:00:27.291Z,3.64
2019-02-12T20:02:58.705Z,3.56
2019-02-12T20:05:30.128Z,3.52
2019-02-12T20:08:03.072Z,3.46
2019-02-12T20:10:34.563Z,3.39
2019-02-12T20:13:06.497Z,3.33
2019-02-12T20:15:37.914Z,3.21
2019-02-12T20:18:09.477Z,3.09
2019-02-12T20:20:41.115Z,2.96
2019-02-12T20:23:15.139Z,2.84
2019-02-12T20:25:46.476Z,2.76
2019-02-12T20:28:17.884Z,2.75
2019-02-12T20:30:51.455Z,2.69
2019-02-12T20:33:23.072Z,2.61
2019-02-12T20:35:54.487Z,2.60
2019-02-12T20:38:26.406Z,2.57
2019-02-12T20:40:57.809Z,2.55
2019-02-12T20:43:30.400Z,2.49
2019-02-12T20:46:01.765Z,2.42
2019-02-12T20:48:33.180Z,2.37
2019-02-12T20:51:04.470Z,2.37
2019-02-12T20:53:38.827Z,2.35
2019-02-12T20:56:10.093Z,2.32
2019-02-12T20:58:43.149Z,2.25
2019-02-12T21:01:14.510Z,2.20
2019-02-12T21:03:45.827Z,2.19
2019-02-12T21:06:17.311Z,2.14
2019-02-12T21:08:48.699Z,2.08
2019-02-12T21:11:20.098Z,2.05
2019-02-12T21:13:51.443Z,2.02
2019-02-12T21:16:22.817Z,1.92
2019-02-12T21:18:54.203Z,1.92
2019-02-12T21:21:26.763Z,1.97
2019-02-12T21:23:58.091Z,1.98
2019-02-12T21:26:29.541Z,1.93
2019-02-12T21:29:01.145Z,1.94
2019-02-12T21:31:33.021Z,1.94
2019-02-12T21:34:04.582Z,1.92
2019-02-12T21:36:36.077Z,1.89
2019-02-12T21:39:09.157Z,1.90
2019-02-12T21:41:40.588Z,1.84
2019-02-12T21:44:11.966Z,1.80
2019-02-12T21:46:43.518Z,1.77
2019-02-12T21:49:14.804Z,1.70
2019-02-12T21:51:46.261Z,1.62
2019-02-12T21:54:17.598Z,1.57
2019-02-12T21:56:49.082Z,1.49
2019-02-12T21:59:20.855Z,1.51
2019-02-12T22:01:53.432Z,1.44
2019-02-12T22:04:24.751Z,1.35
2019-02-12T22:06:56.561Z,1.33
2019-02-12T22:09:27.818Z,1.28
2019-02-12T22:11:59.170Z,1.26
2019-02-12T22:14:30.589Z,1.20
2019-02-12T22:17:02.067Z,1.15
2019-02-12T22:19:34.724Z,1.15
2019-02-12T22:22:06.131Z,1.15
2019-02-12T22:24:37.545Z,1.17
2019-02-12T22:27:09.052Z,1.14
2019-02-12T22:29:40.359Z,1.12
2019-02-12T22:32:11.719Z,1.17
2019-02-12T22:34:43.044Z,1.18
2019-02-12T22:37:14.608Z,1.18
2019-02-12T22:39:45.937Z,1.15
2019-02-12T22:42:17.226Z,1.11
2019-02-12T22:44:48.561Z,1.09
2019-02-12T22:47:19.895Z,1.03
2019-02-12T22:49:51.166Z,1.02
2019-02-12T22:52:23.016Z,0.98
2019-02-12T22:54:54.282Z,0.93
2019-02-12T22:57:27.192Z,0.89
2019-02-12T22:59:58.645Z,0.87
2019-02-12T23:02:30.136Z,0.87
2019-02-12T23:05:01.539Z,0.89
2019-02-12T23:07:33.373Z,0.89
2019-02-12T23:10:07.431Z,0.90
2019-02-12T23:12:39.026Z,0.93
2019-02-12T23:15:11.644Z,0.91
2019-02-12T23:17:43.036Z,0.88
2019-02-12T23:20:14.394Z,0.85
2019-02-12T23:22:45.864Z,0.81
2019-02-12T23:25:19.060Z,0.69
2019-02-12T23:27:57.222Z,0.62
2019-02-12T23:30:23.540Z,0.59
2019-02-12T23:32:56.624Z,0.54
2019-02-12T23:35:28.087Z,0.52
2019-02-12T23:38:02.624Z,0.47
2019-02-12T23:40:34.077Z,0.49
2019-02-12T23:43:05.459Z,0.48
2019-02-12T23:45:37.066Z,0.43
2019-02-12T23:48:08.525Z,0.43
2019-02-12T23:50:39.806Z,0.43
2019-02-12T23:53:11.216Z,0.45
2019-02-12T23:55:42.552Z,0.46
2019-02-12T23:58:14.004Z,0.44
